createdAt,value
2022-12-13T00:00:15.787Z,11.30
2022-12-13T00:01:13.588Z,10.60
2022-12-13T00:02:15.060Z,10.80
2022-12-13T00:03:14.582Z,11.39
2022-12-13T00:04:14.659Z,10.5
2022-12-13T00:05:14.574Z,11.19
2022-12-13T00:06:14.015Z,10.69
2022-12-13T00:07:13.861Z,10.80
2022-12-13T00:08:13.983Z,10.30
2022-12-13T00:09:13.066Z,10.39
2022-12-13T00:10:14.856Z,11.19
2022-12-13T00:11:13.895Z,10.89
2022-12-13T00:12:13.834Z,11.19
2022-12-13T00:13:13.705Z,11.5
2022-12-13T00:14:13.690Z,10.89
2022-12-13T00:16:14.722Z,11.10
2022-12-13T00:18:14.342Z,10.89
2022-12-13T00:19:14.482Z,11.89
2022-12-13T00:20:15.017Z,11.60
2022-12-13T00:21:14.554Z,11.19
2022-12-13T00:22:13.808Z,11.80
2022-12-13T00:23:14.583Z,10.69
2022-12-13T00:24:14.936Z,11.60
2022-12-13T00:26:13.707Z,12.30
2022-12-13T00:27:14.407Z,11.39
2022-12-13T00:28:14.442Z,11.69
2022-12-13T00:29:14.569Z,12.10
2022-12-13T00:30:14.464Z,11.39
2022-12-13T00:31:56.225Z,11
2022-12-13T00:32:18.773Z,11.39
2022-12-13T00:33:14.104Z,11.30
2022-12-13T00:34:14.568Z,11
2022-12-13T00:36:14.040Z,10.89
2022-12-13T00:37:13.973Z,11.10
2022-12-13T00:38:14.369Z,11.19
2022-12-13T00:39:13.760Z,11.69
2022-12-13T00:40:15.075Z,11.10
2022-12-13T00:41:14.273Z,10.69
2022-12-13T00:42:14.397Z,11.60
2022-12-13T00:43:14.569Z,11.30
2022-12-13T00:44:14.270Z,10.89
2022-12-13T00:45:14.972Z,11.19
2022-12-13T00:46:14.736Z,11.69
2022-12-13T00:47:13.674Z,11.19
2022-12-13T00:48:13.940Z,10.69
2022-12-13T00:49:13.412Z,11.30
2022-12-13T00:51:13.676Z,10.89
2022-12-13T00:52:13.915Z,11.60
2022-12-13T00:54:14.001Z,10.80
2022-12-13T00:55:15.521Z,11.39
2022-12-13T00:56:14.665Z,10.80
2022-12-13T00:57:13.552Z,11.30
2022-12-13T00:58:14.973Z,10.69
2022-12-13T00:59:13.838Z,10.80
2022-12-13T01:00:15.603Z,11
2022-12-13T01:01:16.775Z,11.39
2022-12-13T01:02:13.743Z,10.60
2022-12-13T01:03:14.049Z,10.5
2022-12-13T01:04:15.159Z,10.89
2022-12-13T01:05:19.744Z,10.10
2022-12-13T01:06:15.972Z,10.5
2022-12-13T01:07:14.439Z,10.80
2022-12-13T01:08:14.334Z,11
2022-12-13T01:09:13.711Z,10.60
2022-12-13T01:10:14.392Z,10.19
2022-12-13T01:11:14.513Z,10.69
2022-12-13T01:12:14.549Z,10.5
2022-12-13T01:13:14.058Z,10.80
2022-12-13T01:15:14.854Z,10.30
2022-12-13T01:16:19.690Z,10.5
2022-12-13T01:17:13.752Z,10.10
2022-12-13T01:18:13.836Z,10.60
2022-12-13T01:19:13.786Z,11.5
2022-12-13T01:20:13.886Z,11.19
2022-12-13T01:21:14.191Z,10.69
2022-12-13T01:22:14.044Z,11
2022-12-13T01:23:14.195Z,10.5
2022-12-13T01:24:14.650Z,11.10
2022-12-13T01:25:14.623Z,10.5
2022-12-13T01:26:13.867Z,11.30
2022-12-13T01:28:14.539Z,12
2022-12-13T01:29:14.205Z,11.60
2022-12-13T01:30:14.138Z,11
2022-12-13T01:31:13.673Z,11.30
2022-12-13T01:32:13.868Z,11.39
2022-12-13T01:33:14.692Z,11.5
2022-12-13T01:34:13.926Z,11.19
2022-12-13T01:35:15.243Z,10.80
2022-12-13T01:36:14.587Z,11.60
2022-12-13T01:37:14.006Z,11.5
2022-12-13T01:38:15.777Z,11.19
2022-12-13T01:39:14.719Z,11.30
2022-12-13T01:41:17.638Z,11
2022-12-13T01:42:14.604Z,11.39
2022-12-13T01:43:15.051Z,11.5
2022-12-13T01:44:14.469Z,11.10
2022-12-13T01:45:14.821Z,10.39
2022-12-13T01:46:13.463Z,11.19
2022-12-13T01:47:14.088Z,11
2022-12-13T01:48:13.957Z,10.30
2022-12-13T01:49:19.938Z,11.30
2022-12-13T01:51:13.844Z,10.69
2022-12-13T01:52:13.927Z,10.89
2022-12-13T01:53:13.238Z,10.80
2022-12-13T01:54:14.167Z,10.69
2022-12-13T01:55:13.782Z,10.30
2022-12-13T01:56:13.743Z,10.60
2022-12-13T01:57:13.939Z,10.89
2022-12-13T01:58:14.142Z,10.39
2022-12-13T01:59:13.670Z,10.10
2022-12-13T02:00:15.122Z,11
2022-12-13T02:01:14.732Z,10.30
2022-12-13T02:02:14.045Z,10.5
2022-12-13T02:03:21.113Z,10.80
2022-12-13T02:04:13.537Z,10.19
2022-12-13T02:05:15.099Z,10.39
2022-12-13T02:06:13.608Z,9.899
2022-12-13T02:07:14.454Z,10.19
2022-12-13T02:08:14.347Z,11
2022-12-13T02:09:14.217Z,10
2022-12-13T02:10:13.826Z,10.5
2022-12-13T02:11:13.543Z,9.899
2022-12-13T02:13:14.221Z,10.10
2022-12-13T02:14:14.188Z,9.800
2022-12-13T02:15:14.520Z,9.100
2022-12-13T02:16:13.648Z,9.699
2022-12-13T02:17:14.244Z,10.60
2022-12-13T02:18:14.175Z,9.800
2022-12-13T02:19:13.619Z,10.30
2022-12-13T02:20:21.726Z,9.899
2022-12-13T02:21:13.613Z,9.600
2022-12-13T02:22:13.957Z,9.699
2022-12-13T02:23:14.037Z,9.5
2022-12-13T02:24:14.481Z,9.600
2022-12-13T02:25:14.642Z,9.399
2022-12-13T02:28:30.631Z,9.199
2022-12-13T02:29:14.592Z,8.800
2022-12-13T02:30:14.108Z,9.800
2022-12-13T02:31:13.798Z,9.300
2022-12-13T02:32:14.186Z,9.5
2022-12-13T02:33:21.265Z,9.199
2022-12-13T02:34:14.301Z,9.699
2022-12-13T02:35:14.255Z,9.199
2022-12-13T02:36:13.405Z,8.800
2022-12-13T02:37:17.806Z,9.300
2022-12-13T02:39:14.715Z,9.100
2022-12-13T02:40:14.466Z,8.899
2022-12-13T02:41:13.445Z,9.800
2022-12-13T02:42:21.327Z,9.199
2022-12-13T02:43:13.744Z,9.300
2022-12-13T02:44:22.329Z,9
2022-12-13T02:45:20.062Z,9.699
2022-12-13T02:46:14.638Z,8.800
2022-12-13T02:47:22.261Z,9.699
2022-12-13T02:48:14.076Z,9.199
2022-12-13T02:49:13.923Z,9.5
2022-12-13T02:50:13.572Z,9.600
2022-12-13T02:51:14.663Z,9.5
2022-12-13T02:52:13.850Z,8.800
2022-12-13T02:53:14.227Z,9.399
2022-12-13T02:55:14.840Z,9.199
2022-12-13T02:56:13.468Z,9.300
2022-12-13T02:57:14.082Z,9.5
2022-12-13T02:58:13.797Z,9.100
2022-12-13T02:59:14.162Z,9.199
2022-12-13T03:00:14.593Z,9.300
2022-12-13T03:01:28.863Z,8.600
2022-12-13T03:02:13.517Z,9.100
2022-12-13T03:03:14.226Z,8.600
2022-12-13T03:04:14.534Z,9.100
2022-12-13T03:05:14.943Z,8.699
2022-12-13T03:06:14.235Z,8.899
2022-12-13T03:07:14.305Z,9.100
2022-12-13T03:08:14.060Z,8.5
2022-12-13T03:09:14.239Z,9.399
2022-12-13T03:10:14.417Z,8.5
2022-12-13T03:11:14.206Z,9.399
2022-12-13T03:12:14.329Z,8.600
2022-12-13T03:13:14.647Z,9.199
2022-12-13T03:14:13.778Z,9.399
2022-12-13T03:15:15.427Z,8.899
2022-12-13T03:17:14.187Z,8.800
2022-12-13T03:18:13.842Z,9.5
2022-12-13T03:19:15.076Z,8.899
2022-12-13T03:20:23.089Z,9.199
2022-12-13T03:21:14.128Z,9
2022-12-13T03:22:13.822Z,9.199
2022-12-13T03:23:13.871Z,9
2022-12-13T03:24:15.733Z,9.100
2022-12-13T03:25:14.923Z,8.699
2022-12-13T03:26:14.605Z,8.899
2022-12-13T03:27:13.650Z,9.300
2022-12-13T03:28:13.544Z,9.100
2022-12-13T03:32:14.411Z,9.399
2022-12-13T03:33:18.702Z,9.699
2022-12-13T03:34:13.534Z,9.399
2022-12-13T03:35:21.970Z,9
2022-12-13T03:36:14.043Z,9.399
2022-12-13T03:37:13.591Z,9.600
2022-12-13T03:38:22.654Z,12.10
2022-12-13T03:39:14.225Z,11.5
2022-12-13T03:40:14.054Z,12.19
2022-12-13T03:41:18.891Z,12.30
2022-12-13T03:42:13.529Z,12.19
2022-12-13T03:43:13.843Z,12.30
2022-12-13T03:44:14.220Z,12.60
2022-12-13T03:45:14.649Z,12.19
2022-12-13T03:46:13.701Z,12.5
2022-12-13T03:47:14.037Z,12.60
2022-12-13T03:48:13.841Z,12.30
2022-12-13T03:49:17.137Z,12
2022-12-13T03:50:26.897Z,12.30
2022-12-13T03:51:13.956Z,12.10
2022-12-13T03:52:13.847Z,11.5
2022-12-13T03:53:32.169Z,11.80
2022-12-13T03:54:14.195Z,11.30
2022-12-13T03:55:14.416Z,11.39
2022-12-13T03:56:14.555Z,11.89
2022-12-13T03:57:14.357Z,11.69
2022-12-13T03:58:14.829Z,11.19
2022-12-13T03:59:14.214Z,11.30
2022-12-13T04:00:14.565Z,10.80
2022-12-13T04:01:27.752Z,11.19
2022-12-13T04:02:14.113Z,11.10
2022-12-13T04:03:14.618Z,10.5
2022-12-13T04:04:13.857Z,11.10
2022-12-13T04:05:14.591Z,10.5
2022-12-13T04:06:22.183Z,10.89
2022-12-13T04:08:21.963Z,11.30
2022-12-13T04:09:13.718Z,10.5
2022-12-13T04:10:26.459Z,10.39
2022-12-13T04:11:13.776Z,11.19
2022-12-13T04:12:13.984Z,10.89
2022-12-13T04:13:14.502Z,10.10
2022-12-13T04:15:15.263Z,10.60
2022-12-13T04:16:14.573Z,10.89
2022-12-13T04:17:13.723Z,9.699
2022-12-13T04:18:14.693Z,10.39
2022-12-13T04:19:13.809Z,10.10
2022-12-13T04:20:14.512Z,10.19
2022-12-13T04:21:14.191Z,10.39
2022-12-13T04:22:15.554Z,10.30
2022-12-13T04:23:13.794Z,9.699
2022-12-13T04:24:14.342Z,9.5
2022-12-13T04:25:14.050Z,9.300
2022-12-13T04:26:13.713Z,10.30
2022-12-13T04:27:13.666Z,9.5
2022-12-13T04:28:12.662Z,9.800
2022-12-13T04:29:13.018Z,10
2022-12-13T04:30:15.205Z,9.699
2022-12-13T04:31:14.421Z,10.10
2022-12-13T04:32:26.559Z,9.399
2022-12-13T04:33:13.898Z,9.800
2022-12-13T04:34:14.395Z,10.30
2022-12-13T04:35:15.113Z,9.699
2022-12-13T04:36:14.305Z,9.800
2022-12-13T04:37:14.209Z,9.699
2022-12-13T04:38:14.691Z,9.899
2022-12-13T04:39:22.794Z,9.600
2022-12-13T04:40:14.119Z,9.800
2022-12-13T04:41:14.349Z,10
2022-12-13T04:42:14.232Z,9.899
2022-12-13T04:43:14.343Z,9.699
2022-12-13T04:44:27.305Z,9.899
2022-12-13T04:46:13.841Z,9.399
2022-12-13T04:47:14.313Z,10.19
2022-12-13T04:48:14.016Z,9.899
2022-12-13T04:49:13.900Z,10.10
2022-12-13T04:50:13.856Z,9.699
2022-12-13T04:51:13.393Z,9.899
2022-12-13T04:52:13.741Z,8.699
2022-12-13T04:53:14.409Z,10.10
2022-12-13T04:54:23.908Z,9.899
2022-12-13T04:55:13.961Z,9.699
2022-12-13T04:56:14.056Z,10.10
2022-12-13T04:57:13.940Z,9.800
2022-12-13T04:58:18.432Z,9.899
2022-12-13T04:59:14.364Z,10
2022-12-13T05:00:14.948Z,9.800
2022-12-13T05:01:14.658Z,10.30
2022-12-13T05:03:13.628Z,10
2022-12-13T05:04:14.141Z,9.300
2022-12-13T05:05:14.360Z,10.89
2022-12-13T05:06:26.940Z,10.39
2022-12-13T05:07:13.778Z,10.69
2022-12-13T05:08:14.168Z,10.39
2022-12-13T05:09:13.674Z,10.80
2022-12-13T05:10:35.827Z,10.89
2022-12-13T05:11:13.511Z,10.69
2022-12-13T05:12:22.307Z,11.30
2022-12-13T05:13:13.692Z,10.60
2022-12-13T05:14:14.159Z,11.60
2022-12-13T05:15:14.712Z,11.10
2022-12-13T05:16:14.456Z,11
2022-12-13T05:17:14.713Z,11.30
2022-12-13T05:19:14.164Z,11.60
2022-12-13T05:20:14.106Z,11.80
2022-12-13T05:21:15.016Z,12
2022-12-13T05:22:19.421Z,12.19
2022-12-13T05:24:14.221Z,11.80
2022-12-13T05:25:14.259Z,12.39
2022-12-13T05:26:14.373Z,11.60
2022-12-13T05:27:26.397Z,12.19
2022-12-13T05:28:28.011Z,11.60
2022-12-13T05:29:13.972Z,11.39
2022-12-13T05:30:14.411Z,12.10
2022-12-13T05:31:22.659Z,11.89
2022-12-13T05:32:14.056Z,12.19
2022-12-13T05:33:13.923Z,12.10
2022-12-13T05:34:13.796Z,11.30
2022-12-13T05:35:21.963Z,12.60
2022-12-13T05:36:13.509Z,12.10
2022-12-13T05:37:14.346Z,12.19
2022-12-13T05:38:14.152Z,12
2022-12-13T05:39:29.323Z,12.80
2022-12-13T05:40:13.507Z,13.19
2022-12-13T05:41:14.018Z,12.19
2022-12-13T05:42:14.159Z,13.10
2022-12-13T05:43:22.084Z,12.60
2022-12-13T05:44:14.069Z,12.5
2022-12-13T05:45:14.979Z,13
2022-12-13T05:46:14.112Z,12.80
2022-12-13T05:47:14.788Z,13.19
2022-12-13T05:48:14.475Z,13.5
2022-12-13T05:49:14.977Z,13.80
2022-12-13T05:50:14.010Z,13.19
2022-12-13T05:51:14.492Z,14
2022-12-13T05:52:13.350Z,12.89
2022-12-13T05:53:13.717Z,14.10
2022-12-13T05:54:13.637Z,15.5
2022-12-13T05:55:14.978Z,15
2022-12-13T05:56:13.873Z,14.30
2022-12-13T05:58:14.231Z,15.19
2022-12-13T06:00:28.987Z,16.60
2022-12-13T06:01:15.153Z,16.10
2022-12-13T06:02:16.867Z,15.80
2022-12-13T06:03:14.651Z,16.5
2022-12-13T06:04:22.277Z,16.29
2022-12-13T06:05:15.583Z,17.20
2022-12-13T06:06:13.972Z,16.79
2022-12-13T06:07:14.613Z,17.29
2022-12-13T06:08:24.787Z,16.5
2022-12-13T06:09:14.407Z,16.70
2022-12-13T06:10:22.148Z,16.89
2022-12-13T06:11:31.422Z,17.5
2022-12-13T06:12:31.084Z,16.79
2022-12-13T06:13:22.135Z,16
2022-12-13T06:14:23.317Z,18
2022-12-13T06:15:22.052Z,17.60
2022-12-13T06:16:22.919Z,19.10
2022-12-13T06:17:14.387Z,18.79
2022-12-13T06:18:14.972Z,19.10
2022-12-13T06:19:14.849Z,18.10
2022-12-13T06:21:15.581Z,18.5
2022-12-13T06:22:14.195Z,20
2022-12-13T06:23:14.159Z,18.60
2022-12-13T06:24:14.878Z,19.20
2022-12-13T06:25:31.430Z,19.5
2022-12-13T06:27:13.800Z,19.39
2022-12-13T06:28:14.069Z,19
2022-12-13T06:29:23.625Z,18.89
2022-12-13T06:30:14.661Z,19.70
2022-12-13T06:31:13.552Z,19.89
2022-12-13T06:32:33.055Z,18.10
2022-12-13T06:33:13.659Z,19.29
2022-12-13T06:34:15.468Z,19.89
2022-12-13T06:35:28.436Z,20.20
2022-12-13T06:36:13.635Z,20.29
2022-12-13T06:37:14.080Z,21
2022-12-13T06:38:13.498Z,20.39
2022-12-13T06:39:13.970Z,20.89
2022-12-13T06:41:13.717Z,19.60
2022-12-13T06:42:13.918Z,20.29
2022-12-13T06:43:14.782Z,19.60
2022-12-13T06:44:14.109Z,20.5
2022-12-13T06:45:14.650Z,20.79
2022-12-13T06:46:13.864Z,19.20
2022-12-13T06:47:31.946Z,20
2022-12-13T06:48:19.947Z,20.89
2022-12-13T06:49:14.334Z,19.70
2022-12-13T06:50:14.659Z,20.10
2022-12-13T06:51:22.530Z,19.20
2022-12-13T06:52:14.309Z,19.29
2022-12-13T06:53:14.715Z,18.79
2022-12-13T06:54:14.268Z,19.79
2022-12-13T06:55:14.587Z,19.29
2022-12-13T06:56:13.817Z,18.10
2022-12-13T06:57:13.488Z,19.10
2022-12-13T06:58:14.193Z,19.29
2022-12-13T06:59:13.685Z,18.70
2022-12-13T07:00:15.504Z,18.5
2022-12-13T07:01:24.599Z,18
2022-12-13T07:02:24.299Z,20
2022-12-13T07:03:13.446Z,19.79
2022-12-13T07:04:29.406Z,20.39
2022-12-13T07:05:14.032Z,19.20
2022-12-13T07:06:14.048Z,19.39
2022-12-13T07:07:13.722Z,19.10
2022-12-13T07:08:14.735Z,20.70
2022-12-13T07:09:14.370Z,20.10
2022-12-13T07:10:22.495Z,19.20
2022-12-13T07:11:14.025Z,20.10
2022-12-13T07:12:13.782Z,19.39
2022-12-13T07:13:13.955Z,18.89
2022-12-13T07:14:14.320Z,19.60
2022-12-13T07:15:14.410Z,18.70
2022-12-13T07:16:14.373Z,17.89
2022-12-13T07:18:14.262Z,18.29
2022-12-13T07:19:23.459Z,18.20
2022-12-13T07:20:14.060Z,18.29
2022-12-13T07:21:21.339Z,17.89
2022-12-13T07:22:14.081Z,18.5
2022-12-13T07:23:13.583Z,17
2022-12-13T07:24:14.281Z,16.60
2022-12-13T07:25:27.682Z,17.10
2022-12-13T07:26:14.137Z,17.20
2022-12-13T07:27:14.777Z,16.20
2022-12-13T07:28:14.053Z,16.39
2022-12-13T07:29:22.050Z,16.79
2022-12-13T07:30:14.408Z,17.10
2022-12-13T07:31:14.642Z,16.79
2022-12-13T07:32:14.324Z,17
2022-12-13T07:33:13.748Z,16.5
2022-12-13T07:34:15.832Z,17.20
2022-12-13T07:35:14.980Z,17.10
2022-12-13T07:36:14.949Z,16.29
2022-12-13T07:37:29.871Z,17.20
2022-12-13T07:38:14.094Z,17.89
2022-12-13T07:39:15.027Z,17.60
2022-12-13T07:40:15.107Z,16.29
2022-12-13T07:41:14.616Z,18.10
2022-12-13T07:42:15.079Z,17.79
2022-12-13T07:43:14.247Z,17.20
2022-12-13T07:44:14.423Z,18.29
2022-12-13T07:45:14.890Z,17.79
2022-12-13T07:46:14.124Z,17.70
2022-12-13T07:47:14.475Z,18.29
2022-12-13T07:48:14.478Z,18.39
2022-12-13T07:49:14.447Z,19.29
2022-12-13T07:50:24.776Z,18.89
2022-12-13T07:51:14.956Z,20
2022-12-13T07:53:14.470Z,20.5
2022-12-13T07:54:15.009Z,20.79
2022-12-13T07:55:14.541Z,21.5
2022-12-13T07:56:14.999Z,22.70
2022-12-13T07:57:14.284Z,20.79
2022-12-13T07:58:14.694Z,21.29
2022-12-13T07:59:14.383Z,20.60
2022-12-13T08:00:15.196Z,19.5
2022-12-13T08:01:14.557Z,19.60
2022-12-13T08:02:14.867Z,19.5
2022-12-13T08:03:25.777Z,19.29
2022-12-13T08:04:14.724Z,20.39
2022-12-13T08:05:27.003Z,19.79
2022-12-13T08:06:14.301Z,19.70
2022-12-13T08:07:14.777Z,20.70
2022-12-13T08:08:14.957Z,18.70
2022-12-13T08:09:14.013Z,19.39
2022-12-13T08:10:14.120Z,19.20
2022-12-13T08:11:14.501Z,18.60
2022-12-13T08:12:14.868Z,18
2022-12-13T08:13:14.411Z,17.20
2022-12-13T08:14:15.057Z,17.89
2022-12-13T08:15:14.687Z,17.79
2022-12-13T08:16:28.043Z,17
2022-12-13T08:17:14.641Z,18.5
2022-12-13T08:18:14.533Z,16.89
2022-12-13T08:19:14.777Z,17.20
2022-12-13T08:20:14.538Z,17.29
2022-12-13T08:21:52.466Z,16.89
2022-12-13T08:22:15.058Z,18.10
2022-12-13T08:23:14.189Z,18
2022-12-13T08:24:15.919Z,17.60
2022-12-13T08:25:14.689Z,17.29
2022-12-13T08:26:14.530Z,21.10
2022-12-13T08:27:19.428Z,18.79
2022-12-13T08:28:14.240Z,19.5
2022-12-13T08:29:23.297Z,20.5
2022-12-13T08:30:22.974Z,20.89
2022-12-13T08:31:15.266Z,21.70
2022-12-13T08:32:14.971Z,20.70
2022-12-13T08:34:14.762Z,20.29
2022-12-13T08:35:14.176Z,21
2022-12-13T08:36:15.115Z,20.20
2022-12-13T08:37:14.832Z,19.60
2022-12-13T08:39:14.551Z,20.79
2022-12-13T08:40:14.777Z,20.39
2022-12-13T08:41:14.875Z,19.70
2022-12-13T08:42:18.214Z,18.70
2022-12-13T08:43:14.511Z,20.89
2022-12-13T08:44:15.009Z,19
2022-12-13T08:45:14.840Z,19.29
2022-12-13T08:46:14.360Z,18.70
2022-12-13T08:47:23.396Z,19.20
2022-12-13T08:48:14.821Z,19.70
2022-12-13T08:49:14.774Z,20
2022-12-13T08:50:14.785Z,18.79
2022-12-13T08:51:14.368Z,18.29
2022-12-13T08:52:14.763Z,18.70
2022-12-13T08:53:28.124Z,18.5
2022-12-13T08:54:14.621Z,19
2022-12-13T08:55:14.335Z,18.89
2022-12-13T08:56:14.963Z,18.10
2022-12-13T08:57:14.739Z,19.5
2022-12-13T08:58:14.470Z,18.20
2022-12-13T08:59:16.016Z,19.29
2022-12-13T09:00:15.555Z,17.89
2022-12-13T09:01:34.210Z,19.20
2022-12-13T09:02:14.144Z,19
2022-12-13T09:03:13.846Z,18.10
2022-12-13T09:04:14.445Z,18.60
2022-12-13T09:05:33.154Z,18
2022-12-13T09:06:14.512Z,18.29
2022-12-13T09:07:14.613Z,17.89
2022-12-13T09:08:24.461Z,17.5
2022-12-13T09:09:14.346Z,17.70
2022-12-13T09:10:26.390Z,19.79
2022-12-13T09:11:21.519Z,19.10
2022-12-13T09:12:30.774Z,18
2022-12-13T09:13:31.821Z,18.60
2022-12-13T09:14:14.624Z,17.5
2022-12-13T09:15:22.220Z,17.79
2022-12-13T09:16:23.383Z,17.20
2022-12-13T09:17:24.395Z,17
2022-12-13T09:18:15.281Z,17.20
2022-12-13T09:19:25.019Z,16.5
2022-12-13T09:20:28.509Z,16.70
2022-12-13T09:21:22.404Z,16.39
2022-12-13T09:22:14.858Z,15.60
2022-12-13T09:23:23.332Z,17
2022-12-13T09:25:14.643Z,16.89
2022-12-13T09:28:13.629Z,17.79
2022-12-13T09:29:14.131Z,16.79
2022-12-13T09:30:14.554Z,15.80
2022-12-13T09:31:14.817Z,17
2022-12-13T09:32:15.120Z,17.70
2022-12-13T09:33:28.631Z,16.70
2022-12-13T09:34:15.121Z,18.39
2022-12-13T09:35:15.279Z,17.5
2022-12-13T09:36:14.296Z,17.20
2022-12-13T09:37:14.967Z,17
2022-12-13T09:38:15.744Z,17.20
2022-12-13T09:39:15.019Z,16.5
2022-12-13T09:40:16.372Z,17.5
2022-12-13T09:41:19.456Z,18
2022-12-13T09:42:15.096Z,18.20
2022-12-13T09:43:21.745Z,18.29
2022-12-13T09:44:32.095Z,18.10
2022-12-13T09:45:21.854Z,17.60
2022-12-13T09:46:23.001Z,17.20
2022-12-13T09:47:14.190Z,17.29
2022-12-13T09:48:14.446Z,17.79
2022-12-13T09:49:15.012Z,17.29
2022-12-13T09:50:15.462Z,17.89
2022-12-13T09:51:18.031Z,17.70
2022-12-13T09:52:21.709Z,18.29
2022-12-13T09:53:21.986Z,19
2022-12-13T09:54:14.608Z,17.5
2022-12-13T09:55:14.992Z,17.79
2022-12-13T09:56:14.377Z,17.5
2022-12-13T09:57:14.923Z,17.70
2022-12-13T09:58:14.444Z,17.10
2022-12-13T09:59:14.663Z,17.20
2022-12-13T10:00:16.316Z,16.79
2022-12-13T10:01:23.739Z,16.5
2022-12-13T10:02:15.078Z,16.10
2022-12-13T10:03:15.399Z,16.5
2022-12-13T10:04:15.561Z,15.69
2022-12-13T10:05:22.751Z,16.29
2022-12-13T10:06:13.633Z,15.89
2022-12-13T10:07:14.016Z,15.5
2022-12-13T10:08:13.840Z,15.69
2022-12-13T10:09:13.617Z,15.19
2022-12-13T10:10:14.497Z,16
2022-12-13T10:11:14.301Z,16.29
2022-12-13T10:12:14.507Z,15.60
2022-12-13T10:13:14.802Z,15.89
2022-12-13T10:14:14.944Z,16.70
2022-12-13T10:15:22.289Z,16.20
2022-12-13T10:16:14.388Z,15.5
2022-12-13T10:17:14.587Z,16.5
2022-12-13T10:18:14.595Z,14.80
2022-12-13T10:19:29.397Z,15.89
2022-12-13T10:20:15.086Z,16
2022-12-13T10:21:15.093Z,16.39
2022-12-13T10:22:15.234Z,15.39
2022-12-13T10:23:35.683Z,16.20
2022-12-13T10:24:26.457Z,15.19
2022-12-13T10:25:14.660Z,15.80
2022-12-13T10:26:24.422Z,16.29
2022-12-13T10:27:14.300Z,15.69
2022-12-13T10:28:14.728Z,14.5
2022-12-13T10:29:14.664Z,15.10
2022-12-13T10:30:14.187Z,15.39
2022-12-13T10:31:13.967Z,15.5
2022-12-13T10:32:14.333Z,15.30
2022-12-13T10:33:14.590Z,15.19
2022-12-13T10:34:14.298Z,15.5
2022-12-13T10:36:14.080Z,15.69
2022-12-13T10:37:14.912Z,16
2022-12-13T10:38:14.382Z,16.10
2022-12-13T10:39:14.112Z,15.30
2022-12-13T10:40:15.117Z,15.80
2022-12-13T10:41:14.066Z,15.89
2022-12-13T10:42:14.678Z,15.30
2022-12-13T10:43:14.309Z,15.80
2022-12-13T10:44:15.659Z,15.10
2022-12-13T10:45:14.372Z,16
2022-12-13T10:46:14.645Z,15.39
2022-12-13T10:47:17.008Z,15.5
2022-12-13T10:48:15.180Z,15.10
2022-12-13T10:49:14.486Z,15.89
2022-12-13T10:50:15.118Z,15.5
2022-12-13T10:51:14.833Z,15.60
2022-12-13T10:52:14.491Z,15.30
2022-12-13T10:53:14.336Z,15.39
2022-12-13T10:54:19.209Z,16
2022-12-13T10:55:23.561Z,16.10
2022-12-13T10:56:14.955Z,15.80
2022-12-13T10:57:14.817Z,15.5
2022-12-13T10:58:14.780Z,15.30
2022-12-13T10:59:17.517Z,14.39
2022-12-13T11:00:20.266Z,14.69
2022-12-13T11:01:16.108Z,15
2022-12-13T11:02:14.232Z,14.60
2022-12-13T11:03:14.571Z,15.10
2022-12-13T11:04:15.751Z,15.39
2022-12-13T11:06:27.987Z,15.5
2022-12-13T11:07:14.429Z,14.89
2022-12-13T11:08:29.114Z,14.19
2022-12-13T11:09:22.925Z,14.5
2022-12-13T11:10:14.651Z,14.60
2022-12-13T11:12:28.181Z,14.5
2022-12-13T11:13:14.590Z,14.60
2022-12-13T11:15:15.338Z,13.89
2022-12-13T11:16:14.297Z,14.30
2022-12-13T11:17:13.958Z,14.80
2022-12-13T11:18:28.704Z,14.39
2022-12-13T11:19:14.124Z,14.89
2022-12-13T11:20:15.026Z,14.39
2022-12-13T11:21:14.850Z,14.69
2022-12-13T11:22:33.703Z,14.39
2022-12-13T11:23:13.904Z,13.5
2022-12-13T11:24:14.965Z,13.89
2022-12-13T11:25:15.064Z,14.19
2022-12-13T11:26:13.857Z,14
2022-12-13T11:27:15.108Z,14.80
2022-12-13T11:28:37.427Z,13.69
2022-12-13T11:29:14.955Z,13.89
2022-12-13T11:30:15.459Z,14.30
2022-12-13T11:31:14.939Z,13.89
2022-12-13T11:32:14.801Z,13.39
2022-12-13T11:33:14.598Z,14
2022-12-13T11:34:14.179Z,14.60
2022-12-13T11:35:15.243Z,13.80
2022-12-13T11:36:15.091Z,14.10
2022-12-13T11:37:15.024Z,14.19
2022-12-13T11:38:14.825Z,13.60
2022-12-13T11:39:14.274Z,14.10
2022-12-13T11:40:15.566Z,13.60
2022-12-13T11:41:14.353Z,14.39
2022-12-13T11:42:15.022Z,14.30
2022-12-13T11:43:14.625Z,14.19
2022-12-13T11:44:14.787Z,13.60
2022-12-13T11:45:22.482Z,13.5
2022-12-13T11:46:14.364Z,14.30
2022-12-13T11:47:14.378Z,13.60
2022-12-13T11:48:15.091Z,13.39
2022-12-13T11:49:14.087Z,13.69
2022-12-13T11:50:18.989Z,14.10
2022-12-13T11:51:13.634Z,13.39
2022-12-13T11:52:13.738Z,13.80
2022-12-13T11:53:14.162Z,13.19
2022-12-13T11:54:14.063Z,14.5
2022-12-13T11:55:14.736Z,13.69
2022-12-13T11:56:13.911Z,12.60
2022-12-13T11:57:14.516Z,13.60
2022-12-13T11:58:16.476Z,12.89
2022-12-13T11:59:23.896Z,13.19
2022-12-13T12:00:15.515Z,12.19
2022-12-13T12:01:14.789Z,12.5
2022-12-13T12:02:16.535Z,13
2022-12-13T12:03:15.180Z,12.80
2022-12-13T12:04:14.475Z,12.30
2022-12-13T12:06:15.244Z,12.19
2022-12-13T12:07:31.313Z,13.19
2022-12-13T12:08:32.010Z,11.69
2022-12-13T12:09:14.505Z,12.80
2022-12-13T12:10:14.433Z,14
2022-12-13T12:11:15.197Z,12.30
2022-12-13T12:12:13.991Z,13.60
2022-12-13T12:13:14.144Z,13.80
2022-12-13T12:14:14.658Z,13.39
2022-12-13T12:15:16.404Z,13.30
2022-12-13T12:16:13.940Z,13
2022-12-13T12:17:14.193Z,12.19
2022-12-13T12:18:14.828Z,12.89
2022-12-13T12:19:14.860Z,12.69
2022-12-13T12:20:15.965Z,13.60
2022-12-13T12:21:15.160Z,12.80
2022-12-13T12:22:15.348Z,12.69
2022-12-13T12:23:15.307Z,13.60
2022-12-13T12:24:15.210Z,12.69
2022-12-13T12:25:15.159Z,12.10
2022-12-13T12:26:14.669Z,12.89
2022-12-13T12:27:22.303Z,13.19
2022-12-13T12:28:14.421Z,13
2022-12-13T12:29:14.656Z,13.5
2022-12-13T12:30:23.154Z,13.60
2022-12-13T12:31:14.633Z,12.80
2022-12-13T12:33:14.981Z,12.89
2022-12-13T12:34:14.857Z,12.5
2022-12-13T12:35:14.295Z,12.69
2022-12-13T12:37:14.976Z,12.60
2022-12-13T12:38:14.266Z,12.39
2022-12-13T12:39:14.583Z,12.69
2022-12-13T12:40:14.789Z,13.19
2022-12-13T12:41:17.092Z,12
2022-12-13T12:43:16.089Z,12.60
2022-12-13T12:44:14.895Z,12.10
2022-12-13T12:45:26.980Z,12.30
2022-12-13T12:46:14.225Z,13
2022-12-13T12:49:00.673Z,12.30
2022-12-13T12:49:25.429Z,12.10
2022-12-13T12:50:14.522Z,12.39
2022-12-13T12:51:14.543Z,12.60
2022-12-13T12:52:15.097Z,11.80
2022-12-13T12:53:14.887Z,12.69
2022-12-13T12:54:14.636Z,12.80
2022-12-13T12:55:15.186Z,12.39
2022-12-13T12:56:14.466Z,12.69
2022-12-13T12:57:14.427Z,12.30
2022-12-13T12:58:14.877Z,12.69
2022-12-13T12:59:14.879Z,12.5
2022-12-13T13:00:15.747Z,12.39
2022-12-13T13:01:15.149Z,12.19
2022-12-13T13:02:14.331Z,12.60
2022-12-13T13:04:22.216Z,12.89
2022-12-13T13:05:14.671Z,12.30
2022-12-13T13:06:14.173Z,12.60
2022-12-13T13:07:23.121Z,13
2022-12-13T13:08:14.686Z,12.30
2022-12-13T13:09:14.324Z,13.10
2022-12-13T13:10:16.226Z,12.69
2022-12-13T13:11:25.023Z,12.89
2022-12-13T13:12:29.130Z,12.69
2022-12-13T13:13:33.462Z,11.89
2022-12-13T13:14:19.598Z,12.89
2022-12-13T13:15:15.376Z,13.19
2022-12-13T13:16:13.945Z,12.60
2022-12-13T13:17:18.960Z,12.39
2022-12-13T13:18:14.697Z,12.10
2022-12-13T13:19:14.878Z,11.89
2022-12-13T13:20:14.232Z,12.5
2022-12-13T13:21:15.250Z,12.19
2022-12-13T13:22:30.726Z,12.39
2022-12-13T13:23:39.822Z,12.19
2022-12-13T13:24:15.248Z,12.80
2022-12-13T13:25:14.660Z,13.30
2022-12-13T13:26:27.107Z,12.39
2022-12-13T13:27:14.375Z,11.89
2022-12-13T13:28:14.319Z,12.69
2022-12-13T13:29:14.844Z,12.30
2022-12-13T13:30:14.998Z,13.19
2022-12-13T13:31:14.439Z,12.5
2022-12-13T13:32:28.110Z,12.80
2022-12-13T13:33:28.733Z,12.89
2022-12-13T13:34:14.749Z,13.19
2022-12-13T13:35:28.942Z,12.89
2022-12-13T13:36:14.829Z,13.30
2022-12-13T13:37:19.277Z,12.39
2022-12-13T13:38:14.280Z,12.80
2022-12-13T13:39:13.957Z,13.5
2022-12-13T13:40:30.311Z,13
2022-12-13T13:42:13.520Z,12.69
2022-12-13T13:43:14.776Z,13.60
2022-12-13T13:44:14.363Z,13
2022-12-13T13:45:29.294Z,12.80
2022-12-13T13:47:14.803Z,12.69
2022-12-13T13:49:14.219Z,13.30
2022-12-13T13:50:14.589Z,13.39
2022-12-13T13:51:33.884Z,13.5
2022-12-13T13:52:26.650Z,13.30